Terminal Aerodrome Forecast
Issued by NWS

Home | Current Version | Previous Version | Text Only | Print | Product List | Glossary On
Versions: 1 2 3 4 5 6 7 8 9 10 11 12 13 14
000
FTUS43 KGRR 291000 AAB
TAFJXN
TAF AMD
KJXN 291025Z 2910/3006 16011KT P6SM -FZRA OVC040
     FM291200 17008KT 4SM -SN BR OVC030
     FM292000 31013G22KT 5SM -SHSN OVC015=

USA.gov is the U.S. government's official web portal to all federal, state and local government web resources and services.